createdAt,value
2023-05-12T00:03:02.721Z,5.63
2023-05-12T00:08:02.337Z,4.90
2023-05-12T00:13:00.589Z,4.50
2023-05-12T00:17:58.838Z,3.90
2023-05-12T00:22:58.135Z,4.63
2023-05-12T00:27:57.704Z,4.60
2023-05-12T00:32:55.970Z,4.23
2023-05-12T00:37:54.405Z,4.50
2023-05-12T00:42:52.627Z,4.50
2023-05-12T00:47:53.509Z,4.33
2023-05-12T00:52:52.082Z,5.30
2023-05-12T00:57:50.809Z,4.40
2023-05-12T01:02:49.477Z,5.33
2023-05-12T01:07:50.606Z,4.80
2023-05-12T01:12:49.737Z,4.67
2023-05-12T01:17:54.148Z,5.50
2023-05-12T01:22:55.164Z,4.23
2023-05-12T01:27:55.687Z,4.93
2023-05-12T01:32:54.745Z,4.60
2023-05-12T01:37:52.973Z,4.83
2023-05-12T01:42:51.361Z,4.73
2023-05-12T01:47:51.473Z,5.03
2023-05-12T01:52:49.897Z,4.73
2023-05-12T01:57:49.971Z,4.93
2023-05-12T02:02:48.577Z,4.10
2023-05-12T02:07:49.812Z,4.73
2023-05-12T02:12:48.684Z,5.13
2023-05-12T02:17:47.197Z,5.10
2023-05-12T02:22:48.800Z,5.10
2023-05-12T02:27:47.133Z,4.90
2023-05-12T02:32:47.104Z,4.83
2023-05-12T02:37:45.694Z,5.20
2023-05-12T02:42:46.020Z,5.23
2023-05-12T02:47:44.207Z,4.43
2023-05-12T02:52:42.725Z,5.23
2023-05-12T02:57:41.394Z,5.10
2023-05-12T03:02:41.876Z,5.47
2023-05-12T03:07:40.049Z,5.03
2023-05-12T03:12:38.681Z,5.20
2023-05-12T03:17:37.081Z,4.53
2023-05-12T03:22:37.402Z,5.23
2023-05-12T03:27:36.160Z,4.63
2023-05-12T03:32:35.130Z,5.50
2023-05-12T03:37:33.450Z,4.90
2023-05-12T03:42:33.181Z,5.40
2023-05-12T03:47:31.523Z,5.90
2023-05-12T03:52:29.798Z,5.10
2023-05-12T03:57:28.058Z,5.30
2023-05-12T04:02:28.503Z,5.70
2023-05-12T04:07:26.926Z,6.07
2023-05-12T04:12:25.023Z,5.23
2023-05-12T04:17:23.806Z,5.47
2023-05-12T04:22:25.883Z,5.83
2023-05-12T04:27:24.750Z,5.87
2023-05-12T04:32:23.074Z,6.13
2023-05-12T04:37:22.391Z,5.97
2023-05-12T04:42:22.342Z,5.27
2023-05-12T04:47:20.788Z,5.70
2023-05-12T04:52:19.078Z,6.30
2023-05-12T04:57:17.631Z,6.00
2023-05-12T05:02:17.623Z,5.50
2023-05-12T05:07:16.642Z,5.80
2023-05-12T05:12:14.917Z,7.40
2023-05-12T05:17:13.355Z,6.30
2023-05-12T05:22:13.400Z,6.00
2023-05-12T05:27:12.711Z,5.27
2023-05-12T05:32:10.971Z,5.90
2023-05-12T05:37:10.341Z,5.60
2023-05-12T05:42:10.058Z,5.50
2023-05-12T05:47:08.486Z,5.60
2023-05-12T05:52:07.180Z,7.37
2023-05-12T05:57:06.049Z,5.07
2023-05-12T06:02:06.684Z,5.60
2023-05-12T06:07:05.123Z,5.17
2023-05-12T06:12:03.429Z,5.37
2023-05-12T06:17:01.507Z,5.80
2023-05-12T06:22:00.950Z,4.47
2023-05-12T06:26:59.169Z,5.77
2023-05-12T06:31:57.408Z,5.30
2023-05-12T06:36:55.771Z,6.33
2023-05-12T06:41:56.762Z,4.70
2023-05-12T06:46:55.074Z,5.43
2023-05-12T06:51:53.292Z,5.30
2023-05-12T06:56:51.468Z,4.53
2023-05-12T07:01:51.106Z,4.50
2023-05-12T07:06:49.117Z,4.70
2023-05-12T07:11:47.953Z,4.50
2023-05-12T07:16:46.903Z,4.67
2023-05-12T07:21:46.296Z,4.10
2023-05-12T07:26:44.564Z,4.80
2023-05-12T07:31:42.952Z,4.63
2023-05-12T07:36:41.150Z,3.67
2023-05-12T07:41:40.740Z,4.13
2023-05-12T07:46:39.240Z,3.57
2023-05-12T07:51:37.839Z,4.13
2023-05-12T07:56:36.217Z,3.53
2023-05-12T08:01:36.089Z,3.90
2023-05-12T08:06:34.399Z,3.67
2023-05-12T08:11:32.592Z,3.67
2023-05-12T08:16:31.015Z,3.90
2023-05-12T08:21:31.866Z,4.20
2023-05-12T08:26:29.872Z,3.40
2023-05-12T08:31:28.554Z,3.57
2023-05-12T08:36:26.809Z,3.57
2023-05-12T08:41:37.949Z,3.70
2023-05-12T08:46:36.543Z,2.83
2023-05-12T08:51:37.997Z,3.17
2023-05-12T09:01:43.035Z,3.47
2023-05-12T09:06:41.148Z,3.10
2023-05-12T09:11:42.493Z,2.30
2023-05-12T09:16:44.111Z,2.73
2023-05-12T09:21:42.764Z,2.83
2023-05-12T09:26:50.182Z,2.70
2023-05-12T09:31:52.126Z,3.00
2023-05-12T09:36:57.613Z,3.17
2023-05-12T09:41:57.181Z,3.17
2023-05-12T09:46:55.486Z,3.03
2023-05-12T09:51:54.494Z,2.93
2023-05-12T09:56:54.049Z,2.70
2023-05-12T10:01:54.381Z,2.63
2023-05-12T10:06:53.635Z,2.97
2023-05-12T10:11:54.174Z,3.20
2023-05-12T10:16:55.411Z,2.43
2023-05-12T10:21:54.598Z,3.87
2023-05-12T10:26:54.253Z,2.73
2023-05-12T10:31:53.878Z,3.20
2023-05-12T10:36:54.279Z,3.37
2023-05-12T10:42:02.108Z,3.07
2023-05-12T10:47:01.741Z,3.33
2023-05-12T10:52:01.185Z,3.40
2023-05-12T10:57:00.691Z,4.10
2023-05-12T11:02:04.049Z,3.13
2023-05-12T11:07:06.202Z,3.80
2023-05-12T11:12:04.945Z,3.20
2023-05-12T11:17:05.043Z,2.90
2023-05-12T11:22:07.445Z,3.50
2023-05-12T11:27:06.574Z,2.67
2023-05-12T11:32:06.732Z,3.43
2023-05-12T11:37:06.713Z,3.13
2023-05-12T11:42:12.960Z,3.20
2023-05-12T11:47:16.062Z,2.93
2023-05-12T11:52:15.029Z,3.13
2023-05-12T11:57:13.265Z,2.80
2023-05-12T12:02:22.654Z,3.10
2023-05-12T12:07:30.360Z,2.67
2023-05-12T12:12:28.573Z,2.60
2023-05-12T12:17:31.004Z,2.80
2023-05-12T12:22:33.971Z,2.83
2023-05-12T12:27:32.035Z,3.27
2023-05-12T12:32:31.658Z,2.00
2023-05-12T12:37:30.058Z,2.73
2023-05-12T12:42:28.149Z,2.67
2023-05-12T12:47:26.337Z,2.63
2023-05-12T12:52:26.122Z,2.57
2023-05-12T12:57:24.339Z,2.70
2023-05-12T13:02:22.767Z,2.80
2023-05-12T13:07:21.054Z,2.60
2023-05-12T13:12:20.850Z,2.87
2023-05-12T13:17:19.101Z,2.63
2023-05-12T13:22:17.106Z,2.77
2023-05-12T13:27:15.516Z,2.70
2023-05-12T13:32:16.373Z,2.60
2023-05-12T13:37:14.598Z,2.63
2023-05-12T13:42:12.834Z,2.40
2023-05-12T13:47:11.031Z,2.93
2023-05-12T13:52:10.422Z,1.90
2023-05-12T13:57:08.932Z,2.50
2023-05-12T14:02:09.864Z,2.30
2023-05-12T14:07:08.878Z,2.70
2023-05-12T14:12:09.581Z,2.40
2023-05-12T14:17:07.766Z,2.60
2023-05-12T14:22:15.568Z,2.80
2023-05-12T14:27:24.978Z,2.80
2023-05-12T14:32:22.979Z,2.30
2023-05-12T14:37:21.088Z,2.33
2023-05-12T14:42:20.023Z,2.47
2023-05-12T14:47:19.626Z,2.50
2023-05-12T14:52:17.986Z,2.47
2023-05-12T14:57:16.516Z,2.47
2023-05-12T15:02:14.765Z,2.63
2023-05-12T15:07:14.351Z,2.60
2023-05-12T15:12:12.382Z,2.90
2023-05-12T15:17:10.661Z,2.33
2023-05-12T15:22:08.888Z,2.83
2023-05-12T15:27:09.008Z,2.60
2023-05-12T15:32:07.988Z,2.33
2023-05-12T15:37:06.759Z,2.27
2023-05-12T15:42:07.376Z,2.47
2023-05-12T15:47:07.654Z,3.27
2023-05-12T15:52:06.317Z,2.43
2023-05-12T15:57:04.546Z,2.73
2023-05-12T16:02:02.833Z,2.40
2023-05-12T16:07:02.228Z,2.70
2023-05-12T16:12:01.249Z,2.90
2023-05-12T16:16:59.335Z,2.63
2023-05-12T16:21:58.460Z,2.57
2023-05-12T16:26:58.758Z,2.70
2023-05-12T16:31:56.861Z,2.50
2023-05-12T16:36:54.906Z,2.90
2023-05-12T16:41:52.927Z,3.00
2023-05-12T16:46:52.484Z,2.73
2023-05-12T16:51:50.677Z,3.03
2023-05-12T16:56:49.590Z,3.10
2023-05-12T17:01:48.008Z,3.40
2023-05-12T17:06:48.582Z,2.50
2023-05-12T17:11:46.633Z,2.80
2023-05-12T17:16:45.789Z,3.57
2023-05-12T17:21:43.842Z,2.90
2023-05-12T17:26:43.432Z,2.50
2023-05-12T17:31:41.648Z,3.00
2023-05-12T17:36:39.871Z,4.27
2023-05-12T17:41:38.052Z,2.70
2023-05-12T17:46:37.735Z,3.23
2023-05-12T17:51:36.278Z,2.60
2023-05-12T17:56:34.692Z,2.53
2023-05-12T18:01:32.951Z,3.20
2023-05-12T18:06:33.294Z,3.00
2023-05-12T18:11:31.492Z,3.30
2023-05-12T18:16:29.950Z,2.73
2023-05-12T18:21:28.032Z,3.53
2023-05-12T18:26:28.027Z,5.57
2023-05-12T18:31:27.033Z,4.37
2023-05-12T18:36:25.271Z,3.50
2023-05-12T18:41:23.515Z,6.67
2023-05-12T18:46:23.074Z,3.90
2023-05-12T18:51:21.104Z,3.53
2023-05-12T18:56:19.448Z,3.33
2023-05-12T19:01:18.167Z,3.30
2023-05-12T19:06:18.280Z,3.60
2023-05-12T19:11:16.573Z,3.30
2023-05-12T19:16:14.760Z,3.30
2023-05-12T19:21:13.795Z,3.07
2023-05-12T19:26:13.341Z,2.90
2023-05-12T19:31:11.548Z,3.33
2023-05-12T19:36:11.314Z,2.70
2023-05-12T19:41:09.488Z,3.10
2023-05-12T19:46:09.381Z,3.60
2023-05-12T19:51:07.629Z,3.33
2023-05-12T19:56:05.746Z,4.10
2023-05-12T20:01:04.194Z,3.40
2023-05-12T20:06:03.833Z,3.53
2023-05-12T20:11:02.054Z,4.03
2023-05-12T20:16:00.468Z,3.27
2023-05-12T20:20:58.739Z,3.50
2023-05-12T20:25:58.378Z,3.70
2023-05-12T20:30:56.473Z,3.60
2023-05-12T20:35:54.894Z,2.93
2023-05-12T20:40:53.228Z,3.17
2023-05-12T20:45:52.832Z,3.40
2023-05-12T20:50:50.940Z,3.80
2023-05-12T20:55:49.403Z,3.93
2023-05-12T21:00:47.574Z,3.83
2023-05-12T21:05:49.168Z,3.80
2023-05-12T21:10:48.264Z,3.63
2023-05-12T21:15:46.506Z,3.83
2023-05-12T21:20:45.951Z,3.93
2023-05-12T21:25:44.163Z,3.97
2023-05-12T21:30:42.218Z,3.67
2023-05-12T21:35:41.279Z,3.50
2023-05-12T21:40:40.865Z,4.23
2023-05-12T21:45:39.103Z,3.63
2023-05-12T21:50:37.167Z,3.43
2023-05-12T21:55:35.646Z,3.90
2023-05-12T22:00:35.220Z,4.10
2023-05-12T22:05:33.452Z,3.53
2023-05-12T22:10:31.910Z,3.70
2023-05-12T22:15:30.332Z,3.80
2023-05-12T22:20:29.937Z,3.83
2023-05-12T22:25:27.979Z,3.60
2023-05-12T22:30:26.355Z,3.43
2023-05-12T22:35:24.535Z,3.30
2023-05-12T22:40:24.399Z,3.60
2023-05-12T22:50:38.105Z,4.90
2023-05-12T22:55:37.696Z,4.07
2023-05-12T23:00:36.598Z,4.40
2023-05-12T23:05:34.952Z,3.93
2023-05-12T23:10:32.990Z,4.10
2023-05-12T23:15:32.617Z,4.10
2023-05-12T23:20:31.773Z,3.80
2023-05-12T23:25:29.795Z,3.90
2023-05-12T23:30:32.073Z,4.27
2023-05-12T23:35:31.568Z,4.20
2023-05-12T23:40:29.791Z,3.97
2023-05-12T23:45:28.337Z,3.57
2023-05-12T23:50:26.646Z,3.83
2023-05-12T23:55:26.091Z,3.80
